createdAt,value
2019-06-15T00:01:04.557Z,21.81
2019-06-15T00:03:34.191Z,21.87
2019-06-15T00:06:03.773Z,21.90
2019-06-15T00:08:33.511Z,21.65
2019-06-15T00:11:03.115Z,21.35
2019-06-15T00:13:33.343Z,21.19
2019-06-15T00:16:03.491Z,21.13
2019-06-15T00:18:33.339Z,21.03
2019-06-15T00:21:02.918Z,21.03
2019-06-15T00:23:32.879Z,21.01
2019-06-15T00:26:02.464Z,21.10
2019-06-15T00:28:32.054Z,21.20
2019-06-15T00:31:01.675Z,21.28
2019-06-15T00:33:31.263Z,21.21
2019-06-15T00:36:00.825Z,21.13
2019-06-15T00:38:30.723Z,21.13
2019-06-15T00:41:00.328Z,20.97
2019-06-15T00:43:29.929Z,20.77
2019-06-15T00:45:59.513Z,20.54
2019-06-15T00:48:29.078Z,20.50
2019-06-15T00:50:58.649Z,20.55
2019-06-15T00:53:28.642Z,20.51
2019-06-15T00:55:58.237Z,20.50
2019-06-15T00:58:27.827Z,20.56
2019-06-15T01:00:57.442Z,20.66
2019-06-15T01:03:27.044Z,20.68
2019-06-15T01:05:57.470Z,20.63
2019-06-15T01:08:27.186Z,20.53
2019-06-15T01:10:56.758Z,20.29
2019-06-15T01:13:26.325Z,20.20
2019-06-15T01:15:55.896Z,20.25
2019-06-15T01:18:25.460Z,20.31
2019-06-15T01:20:55.038Z,20.40
2019-06-15T01:23:24.610Z,20.50
2019-06-15T01:25:54.179Z,20.61
2019-06-15T01:28:23.778Z,20.58
2019-06-15T01:30:53.706Z,20.41
2019-06-15T01:33:23.618Z,20.28
2019-06-15T01:35:53.175Z,20.17
2019-06-15T01:38:22.755Z,20.07
2019-06-15T01:40:52.364Z,20.08
2019-06-15T01:43:22.445Z,20.18
2019-06-15T01:45:52.040Z,20.28
2019-06-15T01:48:21.636Z,20.36
2019-06-15T01:50:51.222Z,20.39
2019-06-15T01:53:20.776Z,20.33
2019-06-15T01:55:50.365Z,20.21
2019-06-15T01:58:19.927Z,20.10
2019-06-15T02:00:49.512Z,20.04
2019-06-15T02:03:19.090Z,20.00
2019-06-15T02:05:49.053Z,19.97
2019-06-15T02:08:18.627Z,20.06
2019-06-15T02:10:48.261Z,20.15
2019-06-15T02:13:17.847Z,20.20
2019-06-15T02:15:47.416Z,20.16
2019-06-15T02:18:17.008Z,20.03
2019-06-15T02:20:46.605Z,19.98
2019-06-15T02:23:16.212Z,19.96
2019-06-15T02:25:45.787Z,19.94
2019-06-15T02:28:15.386Z,19.95
2019-06-15T02:30:44.988Z,19.98
2019-06-15T02:33:14.580Z,19.96
2019-06-15T02:35:44.761Z,20.01
2019-06-15T02:38:14.373Z,20.09
2019-06-15T02:40:44.833Z,20.12
2019-06-15T02:43:14.427Z,20.17
2019-06-15T02:45:43.990Z,20.10
2019-06-15T02:48:13.743Z,20.02
2019-06-15T02:50:43.720Z,19.97
2019-06-15T02:53:13.320Z,19.92
2019-06-15T02:55:50.621Z,19.91
2019-06-15T02:58:14.197Z,19.92
2019-06-15T03:01:00.292Z,19.94
2019-06-15T03:03:29.938Z,19.87
2019-06-15T03:05:59.835Z,19.88
2019-06-15T03:08:29.560Z,19.87
2019-06-15T03:10:59.130Z,19.81
2019-06-15T03:13:28.925Z,19.78
2019-06-15T03:15:58.521Z,19.71
2019-06-15T03:18:28.167Z,19.65
2019-06-15T03:20:58.408Z,19.60
2019-06-15T03:23:27.978Z,19.56
2019-06-15T03:26:05.555Z,19.53
2019-06-15T03:28:28.875Z,19.52
2019-06-15T03:30:58.919Z,19.51
2019-06-15T03:33:28.705Z,19.53
2019-06-15T03:35:58.293Z,19.57
2019-06-15T03:38:27.874Z,19.60
2019-06-15T03:40:57.516Z,19.61
2019-06-15T03:43:27.078Z,19.60
2019-06-15T03:45:56.642Z,19.56
2019-06-15T03:48:26.317Z,19.52
2019-06-15T03:50:55.884Z,19.55
2019-06-15T03:53:25.463Z,19.60
2019-06-15T03:55:55.067Z,19.63
2019-06-15T03:58:24.722Z,19.67
2019-06-15T04:01:11.055Z,19.68
2019-06-15T04:03:40.847Z,19.59
2019-06-15T04:06:10.457Z,19.51
2019-06-15T04:08:40.036Z,19.51
2019-06-15T04:11:09.623Z,19.55
2019-06-15T04:13:39.213Z,19.53
2019-06-15T04:16:08.868Z,19.56
2019-06-15T04:18:38.459Z,19.57
2019-06-15T04:21:08.306Z,19.57
2019-06-15T04:23:37.920Z,19.59
2019-06-15T04:26:07.501Z,19.56
2019-06-15T04:28:37.096Z,19.56
2019-06-15T04:31:06.882Z,19.55
2019-06-15T04:33:36.564Z,19.60
2019-06-15T04:36:06.133Z,19.65
2019-06-15T04:38:35.746Z,19.68
2019-06-15T04:41:05.575Z,19.76
2019-06-15T04:43:35.367Z,19.85
2019-06-15T04:46:05.357Z,19.89
2019-06-15T04:48:34.948Z,19.94
2019-06-15T04:51:05.520Z,19.91
2019-06-15T04:53:35.465Z,19.97
2019-06-15T04:56:05.153Z,19.99
2019-06-15T04:58:34.743Z,20.03
2019-06-15T05:01:05.235Z,19.91
2019-06-15T05:03:34.827Z,19.83
2019-06-15T05:06:04.483Z,19.73
2019-06-15T05:08:34.043Z,19.61
2019-06-15T05:11:03.853Z,19.55
2019-06-15T05:13:33.526Z,19.60
2019-06-15T05:16:03.124Z,19.57
2019-06-15T05:18:32.779Z,19.57
2019-06-15T05:21:02.377Z,19.68
2019-06-15T05:23:32.022Z,19.65
2019-06-15T05:26:01.616Z,19.71
2019-06-15T05:28:31.190Z,19.74
2019-06-15T05:31:00.788Z,19.82
2019-06-15T05:33:30.409Z,19.83
2019-06-15T05:36:00.021Z,19.76
2019-06-15T05:38:29.632Z,19.83
2019-06-15T05:40:59.198Z,19.86
2019-06-15T05:43:28.819Z,19.94
2019-06-15T05:45:58.405Z,19.94
2019-06-15T05:48:27.966Z,19.95
2019-06-15T05:50:58.721Z,20.00
2019-06-15T05:53:28.342Z,19.88
2019-06-15T05:55:57.916Z,19.78
2019-06-15T05:58:27.546Z,19.84
2019-06-15T06:00:57.135Z,19.89
2019-06-15T06:03:26.726Z,19.89
2019-06-15T06:05:56.318Z,19.86
2019-06-15T06:08:25.922Z,19.91
2019-06-15T06:10:55.606Z,19.92
2019-06-15T06:13:25.362Z,19.93
2019-06-15T06:15:54.986Z,20.02
2019-06-15T06:18:24.578Z,20.05
2019-06-15T06:20:54.147Z,19.99
2019-06-15T06:23:23.711Z,20.00
2019-06-15T06:25:53.316Z,20.06
2019-06-15T06:28:22.962Z,20.06
2019-06-15T06:30:52.534Z,19.98
2019-06-15T06:33:22.153Z,19.95
2019-06-15T06:35:51.928Z,19.82
2019-06-15T06:38:22.192Z,19.81
2019-06-15T06:40:51.803Z,19.74
2019-06-15T06:43:21.378Z,19.81
2019-06-15T06:45:50.971Z,19.88
2019-06-15T06:48:20.615Z,19.85
2019-06-15T06:50:50.207Z,19.85
2019-06-15T06:53:19.835Z,19.87
2019-06-15T06:55:49.410Z,19.90
2019-06-15T06:58:19.017Z,19.93
2019-06-15T07:00:48.780Z,19.90
2019-06-15T07:03:18.668Z,19.90
2019-06-15T07:05:48.305Z,19.98
2019-06-15T07:08:17.879Z,20.01
2019-06-15T07:10:47.447Z,19.81
2019-06-15T07:13:17.071Z,19.73
2019-06-15T07:15:46.680Z,19.84
2019-06-15T07:18:16.289Z,19.96
2019-06-15T07:20:45.903Z,19.99
2019-06-15T07:23:15.462Z,19.96
2019-06-15T07:25:45.113Z,19.90
2019-06-15T07:28:14.702Z,19.81
2019-06-15T07:30:44.333Z,19.67
2019-06-15T07:33:14.393Z,19.64
2019-06-15T07:35:43.970Z,19.69
2019-06-15T07:38:14.093Z,19.58
2019-06-15T07:40:43.605Z,19.54
2019-06-15T07:43:13.451Z,19.45
2019-06-15T07:45:43.105Z,19.37
2019-06-15T07:48:12.757Z,19.40
2019-06-15T07:50:42.317Z,19.48
2019-06-15T07:53:11.900Z,19.51
2019-06-15T07:55:41.796Z,19.50
2019-06-15T07:58:24.135Z,19.51
2019-06-15T08:00:42.969Z,19.38
2019-06-15T08:03:12.552Z,19.19
2019-06-15T08:05:42.145Z,19.19
2019-06-15T08:08:11.829Z,19.12
2019-06-15T08:10:41.433Z,19.17
2019-06-15T08:13:11.021Z,19.17
2019-06-15T08:15:40.680Z,19.07
2019-06-15T08:18:10.267Z,19.02
2019-06-15T08:20:40.355Z,19.03
2019-06-15T08:23:09.950Z,19.12
2019-06-15T08:25:39.529Z,19.20
2019-06-15T08:28:09.140Z,19.32
2019-06-15T08:30:45.354Z,19.44
2019-06-15T08:33:14.956Z,19.50
2019-06-15T08:35:44.540Z,19.67
2019-06-15T08:38:14.096Z,19.92
2019-06-15T08:40:43.733Z,20.13
2019-06-15T08:43:13.388Z,20.28
2019-06-15T08:45:42.970Z,20.41
2019-06-15T08:48:12.541Z,20.59
2019-06-15T08:50:42.118Z,20.76
2019-06-15T08:53:11.695Z,20.89
2019-06-15T08:55:41.548Z,20.95
2019-06-15T08:58:11.130Z,21.05
2019-06-15T09:00:40.741Z,21.19
2019-06-15T09:03:10.333Z,21.38
2019-06-15T09:05:40.005Z,21.51
2019-06-15T09:08:09.552Z,21.42
2019-06-15T09:10:39.463Z,21.39
2019-06-15T09:13:09.080Z,21.62
2019-06-15T09:15:53.838Z,21.82
2019-06-15T09:18:24.089Z,22.02
2019-06-15T09:20:53.730Z,22.13
2019-06-15T09:23:23.301Z,22.35
2019-06-15T09:25:52.869Z,22.45
2019-06-15T09:28:22.461Z,22.50
2019-06-15T09:30:52.109Z,22.46
2019-06-15T09:33:21.710Z,22.35
2019-06-15T09:35:51.607Z,22.20
2019-06-15T09:38:21.206Z,22.14
2019-06-15T09:40:50.816Z,22.08
2019-06-15T09:43:20.477Z,21.97
2019-06-15T09:45:50.065Z,21.93
2019-06-15T09:48:19.667Z,21.97
2019-06-15T09:50:49.259Z,21.96
2019-06-15T09:53:18.852Z,21.65
2019-06-15T09:55:48.558Z,21.45
2019-06-15T09:58:18.131Z,21.41
2019-06-15T10:00:47.712Z,21.31
2019-06-15T10:03:17.275Z,21.15
2019-06-15T10:05:46.858Z,20.99
2019-06-15T10:08:16.444Z,20.99
2019-06-15T10:10:46.707Z,20.80
2019-06-15T10:13:16.418Z,20.81
2019-06-15T10:15:45.980Z,20.90
2019-06-15T10:18:15.600Z,20.92
2019-06-15T10:20:45.700Z,20.92
2019-06-15T10:23:15.327Z,20.84
2019-06-15T10:25:45.051Z,20.79
2019-06-15T10:28:14.712Z,20.82
2019-06-15T10:30:44.278Z,20.86
2019-06-15T10:33:13.964Z,20.96
2019-06-15T10:35:43.538Z,20.83
2019-06-15T10:38:13.397Z,20.66
2019-06-15T10:40:42.982Z,20.65
2019-06-15T10:43:12.553Z,20.72
2019-06-15T10:45:42.490Z,20.76
2019-06-15T10:48:12.159Z,20.79
2019-06-15T10:50:41.741Z,20.74
2019-06-15T10:53:11.351Z,20.70
2019-06-15T10:55:41.048Z,20.73
2019-06-15T10:58:10.618Z,20.74
2019-06-15T11:00:40.544Z,20.78
2019-06-15T11:03:10.116Z,20.83
2019-06-15T11:05:39.780Z,21.05
2019-06-15T11:08:09.355Z,21.21
2019-06-15T11:10:55.669Z,21.14
2019-06-15T11:13:25.276Z,21.14
2019-06-15T11:15:55.169Z,21.22
2019-06-15T11:18:24.739Z,21.30
2019-06-15T11:20:54.334Z,21.46
2019-06-15T11:23:24.309Z,21.49
2019-06-15T11:25:54.075Z,21.48
2019-06-15T11:28:23.648Z,21.54
2019-06-15T11:30:53.222Z,21.51
2019-06-15T11:33:22.875Z,21.46
2019-06-15T11:35:52.737Z,21.33
2019-06-15T11:38:22.332Z,21.28
2019-06-15T11:40:51.906Z,21.28
2019-06-15T11:43:21.522Z,21.32
2019-06-15T11:45:51.106Z,21.53
2019-06-15T11:48:20.707Z,21.53
2019-06-15T11:50:50.423Z,21.62
2019-06-15T11:53:20.015Z,21.78
2019-06-15T11:55:49.681Z,21.85
2019-06-15T11:58:19.272Z,21.93
2019-06-15T12:00:48.844Z,22.01
2019-06-15T12:03:18.455Z,22.09
2019-06-15T12:05:48.018Z,22.10
2019-06-15T12:08:17.770Z,21.88
2019-06-15T12:10:47.336Z,21.92
2019-06-15T12:13:17.015Z,22.00
2019-06-15T12:15:46.613Z,22.14
2019-06-15T12:18:16.181Z,22.24
2019-06-15T12:20:46.095Z,22.18
2019-06-15T12:23:16.031Z,22.09
2019-06-15T12:25:45.685Z,22.09
2019-06-15T12:28:15.278Z,22.07
2019-06-15T12:30:47.817Z,22.02
2019-06-15T12:33:16.624Z,22.09
2019-06-15T12:35:46.241Z,22.15
2019-06-15T12:38:15.875Z,22.26
2019-06-15T12:40:45.514Z,22.40
2019-06-15T12:43:15.830Z,22.46
2019-06-15T12:45:45.411Z,22.52
2019-06-15T12:48:14.992Z,22.44
2019-06-15T12:50:44.600Z,22.41
2019-06-15T12:53:14.169Z,22.33
2019-06-15T12:55:43.741Z,22.23
2019-06-15T12:58:13.709Z,22.27
2019-06-15T13:00:43.269Z,22.28
2019-06-15T13:03:12.886Z,22.32
2019-06-15T13:05:42.722Z,22.47
2019-06-15T13:08:12.818Z,22.63
2019-06-15T13:10:42.408Z,22.59
2019-06-15T13:13:11.991Z,22.66
2019-06-15T13:15:41.649Z,22.72
2019-06-15T13:18:11.470Z,22.88
2019-06-15T13:20:41.179Z,22.93
2019-06-15T13:23:12.354Z,22.97
2019-06-15T13:25:41.938Z,22.97
2019-06-15T13:28:11.529Z,23.00
2019-06-15T13:30:41.127Z,23.02
2019-06-15T13:33:10.805Z,22.98
2019-06-15T13:35:40.418Z,22.75
2019-06-15T13:38:10.351Z,22.63
2019-06-15T13:40:39.926Z,22.67
2019-06-15T13:43:09.511Z,22.67
2019-06-15T13:45:41.200Z,22.55
2019-06-15T13:48:11.832Z,22.47
2019-06-15T13:50:41.656Z,22.49
2019-06-15T13:53:11.318Z,22.59
2019-06-15T13:55:41.126Z,22.68
2019-06-15T13:58:10.726Z,22.61
2019-06-15T14:00:40.270Z,22.60
2019-06-15T14:03:09.882Z,22.54
2019-06-15T14:05:39.588Z,22.56
2019-06-15T14:08:09.318Z,22.59
2019-06-15T14:10:38.899Z,22.77
2019-06-15T14:13:08.508Z,22.90
2019-06-15T14:15:38.471Z,23.06
2019-06-15T14:18:08.079Z,23.11
2019-06-15T14:20:37.657Z,23.19
2019-06-15T14:23:07.816Z,23.17
2019-06-15T14:25:37.968Z,23.26
2019-06-15T14:28:07.656Z,23.41
2019-06-15T14:30:37.800Z,23.46
2019-06-15T14:33:07.396Z,23.51
2019-06-15T14:35:37.252Z,23.59
2019-06-15T14:38:07.109Z,23.68
2019-06-15T14:40:36.714Z,23.74
2019-06-15T14:43:07.144Z,23.79
2019-06-15T14:45:36.722Z,23.82
2019-06-15T14:48:06.893Z,23.91
2019-06-15T14:50:37.072Z,23.94
2019-06-15T14:53:07.254Z,23.97
2019-06-15T14:55:37.322Z,23.86
2019-06-15T14:58:07.623Z,23.78
2019-06-15T15:00:37.296Z,23.57
2019-06-15T15:03:07.023Z,23.55
2019-06-15T15:05:37.201Z,23.64
2019-06-15T15:08:07.016Z,23.73
2019-06-15T15:10:36.977Z,23.88
2019-06-15T15:13:07.635Z,24.00
2019-06-15T15:15:37.232Z,24.11
2019-06-15T15:18:07.088Z,24.16
2019-06-15T15:20:36.652Z,24.20
2019-06-15T15:23:06.419Z,24.20
2019-06-15T15:25:36.936Z,24.30
2019-06-15T15:28:07.406Z,24.31
2019-06-15T15:30:41.678Z,24.31
2019-06-15T15:33:11.270Z,24.27
2019-06-15T15:35:41.773Z,24.20
2019-06-15T15:38:11.374Z,24.10
2019-06-15T15:40:41.003Z,24.02
2019-06-15T15:43:10.576Z,24.06
2019-06-15T15:45:40.168Z,24.07
2019-06-15T15:48:09.765Z,23.96
2019-06-15T15:50:39.349Z,23.77
2019-06-15T15:53:08.935Z,23.73
2019-06-15T15:55:38.516Z,23.75
2019-06-15T15:58:08.118Z,23.81
2019-06-15T16:00:38.186Z,23.85
2019-06-15T16:03:08.346Z,23.83
2019-06-15T16:05:38.096Z,23.79
2019-06-15T16:08:07.677Z,23.71
2019-06-15T16:10:37.666Z,23.73
2019-06-15T16:13:07.409Z,23.67
2019-06-15T16:15:37.498Z,23.55
2019-06-15T16:18:07.961Z,23.43
2019-06-15T16:20:38.238Z,23.41
2019-06-15T16:23:07.921Z,23.45
2019-06-15T16:25:38.242Z,23.45
2019-06-15T16:28:08.515Z,23.47
2019-06-15T16:31:00.286Z,23.49
2019-06-15T16:33:10.142Z,23.69
2019-06-15T16:35:39.722Z,23.77
2019-06-15T16:38:09.409Z,23.81
2019-06-15T16:40:40.524Z,23.73
2019-06-15T16:43:10.498Z,23.75
2019-06-15T16:45:40.119Z,23.80
2019-06-15T16:48:10.313Z,23.87
2019-06-15T16:50:39.878Z,23.92
2019-06-15T16:53:09.462Z,23.90
2019-06-15T16:55:39.059Z,23.87
2019-06-15T16:58:08.636Z,23.87
2019-06-15T17:00:38.285Z,23.86
2019-06-15T17:03:20.920Z,23.82
2019-06-15T17:05:39.787Z,23.83
2019-06-15T17:08:09.369Z,23.83
2019-06-15T17:10:42.985Z,23.77
2019-06-15T17:13:12.631Z,23.80
2019-06-15T17:15:42.198Z,23.83
2019-06-15T17:18:11.882Z,23.79
2019-06-15T17:20:50.592Z,23.81
2019-06-15T17:23:20.596Z,23.83
2019-06-15T17:25:50.966Z,23.84
2019-06-15T17:28:20.558Z,23.82
2019-06-15T17:30:50.993Z,23.79
2019-06-15T17:33:34.232Z,23.79
2019-06-15T17:36:02.615Z,23.83
2019-06-15T17:38:27.583Z,23.75
2019-06-15T17:40:57.280Z,23.74
2019-06-15T17:43:27.208Z,23.77
2019-06-15T17:45:56.794Z,23.75
2019-06-15T17:48:26.385Z,23.76
2019-06-15T17:50:57.209Z,23.71
2019-06-15T17:53:27.028Z,23.51
2019-06-15T17:55:56.759Z,23.45
2019-06-15T17:58:26.786Z,23.32
2019-06-15T18:00:57.556Z,23.35
2019-06-15T18:03:27.976Z,23.33
2019-06-15T18:05:58.282Z,23.28
2019-06-15T18:08:29.005Z,23.27
2019-06-15T18:10:58.582Z,23.25
2019-06-15T18:13:28.197Z,23.19
2019-06-15T18:15:57.776Z,23.16
2019-06-15T18:18:27.954Z,23.12
2019-06-15T18:20:57.637Z,23.02
2019-06-15T18:23:27.267Z,22.94
2019-06-15T18:25:56.807Z,22.86
2019-06-15T18:28:26.625Z,22.83
2019-06-15T18:30:56.459Z,22.82
2019-06-15T18:33:27.235Z,22.76
2019-06-15T18:35:57.108Z,22.75
2019-06-15T18:38:26.701Z,22.75
2019-06-15T18:40:56.882Z,22.78
2019-06-15T18:43:26.491Z,22.75
2019-06-15T18:45:56.752Z,22.65
2019-06-15T18:48:26.894Z,22.60
2019-06-15T18:50:57.039Z,22.66
2019-06-15T18:53:27.319Z,22.67
2019-06-15T18:55:57.752Z,22.58
2019-06-15T18:58:27.299Z,22.45
2019-06-15T19:00:56.871Z,22.40
2019-06-15T19:03:26.472Z,22.38
2019-06-15T19:05:57.015Z,22.46
2019-06-15T19:08:26.766Z,22.49
2019-06-15T19:10:56.447Z,22.35
2019-06-15T19:13:31.776Z,22.22
2019-06-15T19:16:01.338Z,22.18
2019-06-15T19:18:32.026Z,22.22
2019-06-15T19:21:01.698Z,22.18
2019-06-15T19:23:31.412Z,22.09
2019-06-15T19:26:01.269Z,21.96
2019-06-15T19:28:30.862Z,21.95
2019-06-15T19:31:00.435Z,21.91
2019-06-15T19:33:30.050Z,21.82
2019-06-15T19:35:59.624Z,21.82
2019-06-15T19:38:29.211Z,21.85
2019-06-15T19:40:58.796Z,21.84
2019-06-15T19:43:28.369Z,21.83
2019-06-15T19:45:57.957Z,21.79
2019-06-15T19:48:27.518Z,21.79
2019-06-15T19:50:57.093Z,21.77
2019-06-15T19:53:27.298Z,21.73
2019-06-15T19:55:57.762Z,21.71
2019-06-15T19:58:27.384Z,21.72
2019-06-15T20:00:56.964Z,21.70
2019-06-15T20:03:27.672Z,21.68
2019-06-15T20:05:57.597Z,21.62
2019-06-15T20:08:27.189Z,21.61
2019-06-15T20:10:56.897Z,21.60
2019-06-15T20:13:26.547Z,21.54
2019-06-15T20:15:57.191Z,21.50
2019-06-15T20:18:30.017Z,21.47
2019-06-15T20:20:58.409Z,21.44
2019-06-15T20:23:28.873Z,21.42
2019-06-15T20:25:58.738Z,21.32
2019-06-15T20:28:29.947Z,21.28
2019-06-15T20:30:59.536Z,21.26
2019-06-15T20:33:29.129Z,21.24
2019-06-15T20:35:58.709Z,21.17
2019-06-15T20:38:28.396Z,21.10
2019-06-15T20:41:00.072Z,21.01
2019-06-15T20:43:31.263Z,20.94
2019-06-15T20:46:00.920Z,20.89
2019-06-15T20:48:30.850Z,20.90
2019-06-15T20:51:01.739Z,20.92
2019-06-15T20:53:36.751Z,20.98
2019-06-15T20:56:07.046Z,20.93
2019-06-15T20:58:38.139Z,20.87
2019-06-15T21:01:08.172Z,20.82
2019-06-15T21:03:39.004Z,20.75
2019-06-15T21:06:08.749Z,20.69
2019-06-15T21:08:39.440Z,20.63
2019-06-15T21:11:09.882Z,20.61
2019-06-15T21:13:40.515Z,20.58
2019-06-15T21:16:11.382Z,20.54
2019-06-15T21:18:41.069Z,20.53
2019-06-15T21:21:12.251Z,20.53
2019-06-15T21:23:43.403Z,20.48
2019-06-15T21:26:16.370Z,20.43
2019-06-15T21:28:47.471Z,20.49
2019-06-15T21:31:18.085Z,20.32
2019-06-15T21:33:47.688Z,20.28
2019-06-15T21:36:21.074Z,20.21
2019-06-15T21:38:52.869Z,20.17
2019-06-15T21:41:26.160Z,20.14
2019-06-15T21:43:57.275Z,20.10
2019-06-15T21:46:29.063Z,20.10
2019-06-15T21:49:00.218Z,20.11
2019-06-15T21:51:31.745Z,20.10
2019-06-15T21:54:03.176Z,20.09
2019-06-15T21:56:36.691Z,20.05
2019-06-15T21:59:07.677Z,20.07
2019-06-15T22:01:38.794Z,20.02
2019-06-15T22:04:11.514Z,19.97
2019-06-15T22:06:42.089Z,19.93
2019-06-15T22:09:13.516Z,19.89
2019-06-15T22:11:46.763Z,19.86
2019-06-15T22:14:17.147Z,19.78
2019-06-15T22:16:48.157Z,19.71
2019-06-15T22:19:19.127Z,19.70
2019-06-15T22:21:49.860Z,19.65
2019-06-15T22:24:20.790Z,19.66
2019-06-15T22:26:50.784Z,19.70
2019-06-15T22:29:20.385Z,19.76
2019-06-15T22:31:50.037Z,19.75
2019-06-15T22:34:19.880Z,19.63
2019-06-15T22:36:49.473Z,19.59
2019-06-15T22:39:19.144Z,19.55
2019-06-15T22:41:48.694Z,19.49
2019-06-15T22:44:18.680Z,19.48
2019-06-15T22:46:48.238Z,19.51
2019-06-15T22:49:17.806Z,19.52
2019-06-15T22:51:47.747Z,19.46
2019-06-15T22:54:17.399Z,19.48
2019-06-15T22:56:47.013Z,19.49
2019-06-15T22:59:17.048Z,19.50
2019-06-15T23:01:47.303Z,19.48
2019-06-15T23:04:22.048Z,19.39
2019-06-15T23:06:52.454Z,19.37
2019-06-15T23:09:23.090Z,19.43
2019-06-15T23:11:53.512Z,19.46
2019-06-15T23:14:26.158Z,19.54
2019-06-15T23:16:56.861Z,19.57
2019-06-15T23:19:27.728Z,19.60
2019-06-15T23:21:58.603Z,19.64
2019-06-15T23:24:33.281Z,19.57
2019-06-15T23:27:06.613Z,19.55
2019-06-15T23:29:36.824Z,19.49
2019-06-15T23:32:06.506Z,19.47
2019-06-15T23:34:36.113Z,19.47
2019-06-15T23:37:07.385Z,19.46
2019-06-15T23:39:36.991Z,19.45
2019-06-15T23:42:06.571Z,19.46
2019-06-15T23:44:36.296Z,19.42
2019-06-15T23:47:05.919Z,19.44
2019-06-15T23:49:36.692Z,19.41
2019-06-15T23:52:06.916Z,19.56
2019-06-15T23:54:36.997Z,19.59
2019-06-15T23:57:06.687Z,19.52
2019-06-15T23:59:37.302Z,19.48
